Time;durP1;ratioP1;P1;durP2;ratioP2;P2;SDS_P1;SDS_P2;PMS_P1;PMS_P2;Temp;Humidity;BMP_temperature;BMP_pressure;BME280_temperature;BME280_humidity;BME280_pressure;Samples;Min_cycle;Max_cycle;Signal;HPM_P1;HPM_P2
2022/03/17 00:05:26;;;;;;;81.07;33.35;;;2.10;99.90;;;;;;20551402;28;20122;-55
2022/03/17 00:15:29;;;;;;;66.88;28.17;;;2.20;99.90;;;;;;20495873;28;20047;-55
2022/03/17 00:25:32;;;;;;;68.07;30.77;;;2.10;99.90;;;;;;20470270;28;20047;-54
2022/03/17 00:35:35;;;;;;;83.03;35.10;;;2.00;99.90;;;;;;20469858;28;20398;-53
2022/03/17 00:45:40;;;;;;;83.38;34.42;;;2.10;99.90;;;;;;20552911;28;20035;-56
2022/03/17 00:55:42;;;;;;;87.43;36.30;;;2.50;99.90;;;;;;20601711;28;20554;-56
2022/03/17 01:05:45;;;;;;;78.68;33.58;;;2.80;99.90;;;;;;20468123;28;20341;-55
2022/03/17 01:15:47;;;;;;;79.95;32.45;;;3.20;99.90;;;;;;20524368;28;20416;-56
2022/03/17 01:25:50;;;;;;;78.18;33.28;;;3.30;99.90;;;;;;20623126;28;20492;-56
2022/03/17 01:35:52;;;;;;;82.68;37.78;;;3.40;99.90;;;;;;20529778;28;20055;-56
2022/03/17 01:45:54;;;;;;;66.97;27.70;;;3.40;99.90;;;;;;20545675;28;20038;-56
2022/03/17 01:55:58;;;;;;;78.43;34.60;;;3.30;99.90;;;;;;20622350;28;20104;-56
2022/03/17 02:06:01;;;;;;;56.92;24.67;;;3.30;99.90;;;;;;20621875;28;20035;-56
2022/03/17 02:16:04;;;;;;;63.08;29.25;;;3.20;99.90;;;;;;20562382;28;20093;-56
2022/03/17 02:26:07;;;;;;;57.90;25.30;;;3.10;99.90;;;;;;20540928;28;20043;-56
2022/03/17 02:36:10;;;;;;;59.35;28.33;;;3.20;99.90;;;;;;20542401;28;20056;-55
2022/03/17 02:46:12;;;;;;;59.58;27.73;;;3.20;99.90;;;;;;20462228;28;20035;-57
2022/03/17 02:56:14;;;;;;;85.47;38.63;;;3.30;99.90;;;;;;20462345;28;20097;-56
2022/03/17 03:06:17;;;;;;;83.35;37.00;;;3.30;99.90;;;;;;20463183;28;20477;-55
2022/03/17 03:16:20;;;;;;;76.28;31.52;;;3.10;99.90;;;;;;20522077;28;20061;-56
2022/03/17 03:26:22;;;;;;;91.13;38.17;;;2.80;99.90;;;;;;20621299;28;20098;-53
2022/03/17 03:46:45;;;;;;;72.57;32.45;;;2.90;99.90;;;;;;20645969;28;20039;-55
2022/03/17 03:56:50;;;;;;;92.80;41.22;;;3.20;99.90;;;;;;20552037;28;20073;-55
2022/03/17 04:06:56;;;;;;;74.85;33.42;;;3.20;99.90;;;;;;20596567;28;20042;-55
2022/03/17 04:16:59;;;;;;;90.03;37.00;;;3.20;99.90;;;;;;20550696;28;20042;-56
2022/03/17 04:27:01;;;;;;;92.05;37.55;;;3.10;99.90;;;;;;20628402;28;20441;-53
2022/03/17 04:37:04;;;;;;;84.93;36.10;;;2.90;99.90;;;;;;20560903;28;20258;-54
2022/03/17 04:47:07;;;;;;;74.72;31.20;;;2.60;99.90;;;;;;20644411;28;20176;-54
2022/03/17 04:57:09;;;;;;;77.40;33.30;;;2.30;99.90;;;;;;20628278;28;20061;-53
2022/03/17 05:07:12;;;;;;;101.15;40.15;;;2.00;99.90;;;;;;20648200;28;20038;-55
2022/03/17 05:17:14;;;;;;;104.68;41.17;;;1.90;99.90;;;;;;20627128;28;20092;-54
2022/03/17 05:27:19;;;;;;;91.88;38.90;;;2.10;99.90;;;;;;20626763;28;20080;-55
2022/03/17 05:37:21;;;;;;;79.90;34.50;;;2.30;99.90;;;;;;20626816;28;20112;-54
2022/03/17 05:47:24;;;;;;;75.00;32.03;;;2.20;99.90;;;;;;20609812;28;20050;-55
2022/03/17 05:57:26;;;;;;;74.60;31.05;;;2.50;99.90;;;;;;20641551;28;20035;-56
2022/03/17 06:07:44;;;;;;;63.55;30.17;;;2.70;99.90;;;;;;20642594;28;20038;-54
2022/03/17 06:17:49;;;;;;;73.55;31.30;;;3.10;99.90;;;;;;20629297;28;20035;-55
2022/03/17 06:27:53;;;;;;;64.55;30.80;;;3.50;99.90;;;;;;20554039;28;20043;-56
2022/03/17 06:37:57;;;;;;;67.30;28.98;;;3.80;99.90;;;;;;20619334;28;20146;-56
2022/03/17 06:48:00;;;;;;;55.55;24.40;;;4.20;99.90;;;;;;20636068;28;20084;-56
2022/03/17 06:58:03;;;;;;;43.78;21.58;;;4.40;99.90;;;;;;20647225;28;20458;-56
2022/03/17 07:08:06;;;;;;;40.75;19.27;;;4.70;99.90;;;;;;20624837;28;20034;-56
2022/03/17 07:18:09;;;;;;;39.50;17.70;;;5.20;99.90;;;;;;20639063;28;20122;-57
2022/03/17 07:28:13;;;;;;;39.72;18.08;;;5.60;99.90;;;;;;20634306;28;20031;-57
2022/03/17 07:38:17;;;;;;;37.25;16.88;;;6.00;99.90;;;;;;20634680;28;20523;-56
2022/03/17 07:48:20;;;;;;;41.90;16.35;;;6.30;99.90;;;;;;20582065;28;20430;-57
2022/03/17 07:58:34;;;;;;;30.55;15.85;;;6.50;99.90;;;;;;20635836;28;20070;-56
2022/03/17 08:08:37;;;;;;;45.97;16.95;;;6.60;99.90;;;;;;20635135;28;20043;-57
2022/03/17 08:18:41;;;;;;;33.13;15.70;;;6.90;99.90;;;;;;20554497;28;20039;-57
2022/03/17 08:28:43;;;;;;;30.13;15.32;;;7.40;99.90;;;;;;20471047;28;20133;-57
2022/03/17 08:38:50;;;;;;;37.03;17.23;;;7.90;99.90;;;;;;20546347;28;20051;-57
2022/03/17 08:59:12;;;;;;;;;;;8.80;99.90;;;;;;20481705;28;20063;-66
2022/03/17 09:09:16;;;;;;;41.95;19.55;;;9.30;99.90;;;;;;20585449;28;19910;-57
2022/03/17 09:19:19;;;;;;;40.92;21.50;;;9.60;99.90;;;;;;20625674;28;20042;-57
2022/03/17 09:29:22;;;;;;;40.10;19.98;;;9.50;99.90;;;;;;20627402;28;20038;-57
2022/03/17 09:39:43;;;;;;;41.35;20.65;;;8.90;99.90;;;;;;20642664;28;20051;-57
2022/03/17 09:49:52;;;;;;;38.13;20.92;;;8.50;99.90;;;;;;20621936;28;20034;-57
2022/03/17 09:59:58;;;;;;;45.40;23.27;;;8.10;99.90;;;;;;20622734;28;20035;-56
2022/03/17 10:10:03;;;;;;;51.17;24.63;;;7.70;99.90;;;;;;20545023;28;20043;-57
2022/03/17 10:20:22;;;;;;;48.60;25.30;;;7.30;99.90;;;;;;20639219;28;20039;-57
2022/03/17 10:30:37;;;;;;;48.13;24.67;;;6.90;99.90;;;;;;20543307;28;20035;-56
2022/03/17 10:40:41;;;;;;;55.53;26.02;;;6.60;99.90;;;;;;20625067;28;20645;-56
2022/03/17 10:50:44;;;;;;;48.03;24.25;;;6.60;99.90;;;;;;20642938;28;20396;-57
2022/03/17 11:00:56;;;;;;;49.75;25.08;;;7.00;99.90;;;;;;20625370;28;20043;-56
2022/03/17 11:11:00;;;;;;;50.00;23.90;;;7.10;99.90;;;;;;20607406;28;20036;-57
2022/03/17 11:21:19;;;;;;;47.67;23.08;;;7.50;99.90;;;;;;20529184;28;20052;-57
2022/03/17 11:31:24;;;;;;;64.90;27.13;;;7.60;99.90;;;;;;20561086;28;20039;-57
2022/03/17 11:41:28;;;;;;;43.85;23.95;;;7.70;99.90;;;;;;20543496;28;20093;-57
2022/03/17 11:51:35;;;;;;;46.47;24.98;;;8.00;99.90;;;;;;20561087;28;20039;-57
2022/03/17 12:01:43;;;;;;;43.10;23.30;;;8.00;99.90;;;;;;20556150;28;20035;-57
2022/03/17 12:11:47;;;;;;;44.67;23.92;;;8.10;99.90;;;;;;20466140;28;20101;-57
2022/03/17 12:22:01;;;;;;;50.80;23.95;;;8.20;99.90;;;;;;20459218;28;20127;-57
2022/03/17 12:32:06;;;;;;;49.10;25.02;;;8.00;99.90;;;;;;20503587;28;20471;-57
2022/03/17 12:42:23;;;;;;;48.90;26.85;;;7.80;99.90;;;;;;20871968;28;20041;-57
2022/03/17 12:52:30;;;;;;;50.15;26.25;;;7.70;99.90;;;;;;20887720;28;20087;-57
2022/03/17 13:02:33;;;;;;;51.55;27.58;;;7.60;99.90;;;;;;20902461;28;20041;-56
2022/03/17 13:23:15;;;;;;;54.45;28.60;;;7.40;99.90;;;;;;20967261;28;20028;-57
2022/03/17 13:33:32;;;;;;;56.43;28.40;;;7.20;99.90;;;;;;20965755;28;20449;-57
2022/03/17 13:43:37;;;;;;;54.53;28.55;;;7.20;99.90;;;;;;20967087;28;20093;-57
2022/03/17 13:53:40;;;;;;;55.53;29.42;;;7.20;99.90;;;;;;20964695;28;20117;-57
2022/03/17 14:04:03;;;;;;;56.70;29.20;;;7.30;99.90;;;;;;20963961;28;20040;-56
2022/03/17 14:14:09;;;;;;;53.05;27.50;;;7.50;99.90;;;;;;20918099;28;20036;-57
2022/03/17 14:24:13;;;;;;;62.20;31.60;;;7.90;99.90;;;;;;20880011;28;20045;-57
2022/03/17 14:34:19;;;;;;;52.90;27.52;;;8.10;99.90;;;;;;20879739;28;20071;-57
2022/03/17 14:44:21;;;;;;;53.40;26.45;;;8.10;99.90;;;;;;20879528;28;20098;-57
2022/03/17 14:54:24;;;;;;;48.92;25.38;;;8.50;99.90;;;;;;20879092;28;20055;-57
2022/03/17 15:04:26;;;;;;;46.95;23.08;;;8.60;99.90;;;;;;20878407;28;20410;-57
2022/03/17 15:14:29;;;;;;;46.85;22.40;;;8.70;99.90;;;;;;20942983;28;20045;-56
2022/03/17 15:24:32;;;;;;;38.92;21.90;;;8.60;99.90;;;;;;20977373;28;20486;-66
2022/03/17 15:34:34;;;;;;;43.55;22.90;;;8.40;99.90;;;;;;20973467;28;20094;-57
2022/03/17 15:44:37;;;;;;;45.85;23.13;;;8.30;99.90;;;;;;20974730;28;20109;-56
2022/03/17 15:54:39;;;;;;;43.88;24.17;;;8.20;99.90;;;;;;20974254;28;20040;-57
2022/03/17 16:04:42;;;;;;;51.53;26.50;;;8.00;99.90;;;;;;20991284;28;20036;-57
2022/03/17 16:14:44;;;;;;;52.90;28.05;;;7.80;99.90;;;;;;20922250;28;20037;-55
2022/03/17 16:24:48;;;;;;;77.15;30.95;;;7.10;99.90;;;;;;20889047;28;20037;-56
2022/03/17 16:34:51;;;;;;;54.47;27.73;;;6.90;99.90;;;;;;20888179;28;20115;-56
2022/03/17 16:44:56;;;;;;;61.47;28.75;;;6.60;99.90;;;;;;20886515;28;20041;-57
2022/03/17 16:54:58;;;;;;;58.28;28.50;;;6.00;99.90;;;;;;20887122;28;20032;-56
2022/03/17 17:05:00;;;;;;;57.35;27.55;;;5.50;99.90;;;;;;20885672;28;20040;-56
2022/03/17 17:15:05;;;;;;;71.30;33.15;;;5.10;99.90;;;;;;20938093;28;20066;-56
2022/03/17 17:35:33;;;;;;;56.80;27.63;;;4.30;99.90;;;;;;20965985;28;20052;-56
2022/03/17 17:45:39;;;;;;;50.33;24.98;;;4.00;99.90;;;;;;20950532;28;20429;-56
2022/03/17 17:55:43;;;;;;;64.00;29.60;;;3.60;99.90;;;;;;20964808;28;20478;-56
2022/03/17 18:05:46;;;;;;;53.20;23.58;;;3.40;99.90;;;;;;20980779;28;20036;-54
2022/03/17 18:15:48;;;;;;;61.55;25.88;;;3.20;99.90;;;;;;20904298;28;20407;-65
2022/03/17 18:25:53;;;;;;;56.85;25.05;;;3.10;99.90;;;;;;20880627;28;20492;-53
2022/03/17 18:35:56;;;;;;;63.20;27.23;;;3.10;99.90;;;;;;20879360;28;20041;-56
2022/03/17 18:45:59;;;;;;;63.67;29.17;;;3.10;99.90;;;;;;20897221;28;20041;-53
2022/03/17 18:56:01;;;;;;;68.22;28.88;;;3.20;99.90;;;;;;20880019;28;20479;-55
2022/03/17 19:06:04;;;;;;;69.80;28.75;;;3.30;99.90;;;;;;20904285;28;20037;-55
2022/03/17 19:16:06;;;;;;;56.85;22.55;;;3.30;99.90;;;;;;20956358;28;20626;-54
2022/03/17 19:26:10;;;;;;;50.55;20.17;;;3.40;99.90;;;;;;20976230;28;20036;-55
2022/03/17 19:36:13;;;;;;;41.05;17.25;;;3.80;99.90;;;;;;20975674;28;20098;-55
2022/03/17 19:46:18;;;;;;;42.83;15.15;;;4.00;99.90;;;;;;20974805;28;20036;-56
2022/03/17 19:56:20;;;;;;;46.65;17.73;;;4.20;99.90;;;;;;20973986;28;20040;-56
2022/03/17 20:06:23;;;;;;;53.50;25.45;;;4.00;99.90;;;;;;20973160;28;20098;-54
2022/03/17 20:16:27;;;;;;;49.72;22.67;;;3.90;99.90;;;;;;20906630;28;20033;-56
2022/03/17 20:26:30;;;;;;;61.20;26.77;;;3.60;99.90;;;;;;20813763;28;20498;-55
2022/03/17 20:36:35;;;;;;;57.80;25.35;;;3.40;99.90;;;;;;20796731;28;20143;-55
2022/03/17 20:46:37;;;;;;;54.22;21.40;;;3.30;99.90;;;;;;20796125;28;20081;-55
2022/03/17 20:56:40;;;;;;;54.15;22.08;;;3.10;99.90;;;;;;20809063;28;20481;-53
2022/03/17 21:06:42;;;;;;;53.78;21.42;;;3.00;99.90;;;;;;20886137;28;20116;-54
2022/03/17 21:16:45;;;;;;;55.65;23.55;;;2.90;99.90;;;;;;20952266;28;20185;-55
2022/03/17 21:26:51;;;;;;;48.28;21.63;;;2.80;99.90;;;;;;20966200;28;20044;-60
2022/03/17 21:36:53;;;;;;;56.75;21.05;;;2.90;99.90;;;;;;20965216;28;20036;-53
2022/03/17 21:46:57;;;;;;;51.63;23.02;;;2.90;99.90;;;;;;20965512;28;20555;-52
2022/03/17 21:56:59;;;;;;;59.42;22.90;;;2.80;99.90;;;;;;20965374;28;20045;-55
2022/03/17 22:07:02;;;;;;;46.95;19.92;;;2.70;99.90;;;;;;20964714;28;20042;-53
2022/03/17 22:17:05;;;;;;;46.10;17.60;;;2.70;99.90;;;;;;20963136;28;20086;-53
2022/03/17 22:27:10;;;;;;;58.03;24.88;;;2.70;99.90;;;;;;20979572;28;20032;-55
2022/03/17 22:37:13;;;;;;;58.97;25.15;;;2.70;99.90;;;;;;20961357;28;20056;-54
2022/03/17 22:47:16;;;;;;;66.97;24.88;;;2.70;99.90;;;;;;20962434;28;20071;-54
2022/03/17 22:57:19;;;;;;;46.03;17.13;;;2.60;99.90;;;;;;20962894;28;20250;-56
2022/03/17 23:07:21;;;;;;;19.92;6.63;;;2.70;99.90;;;;;;20962082;28;20099;-54
2022/03/17 23:17:24;;;;;;;28.60;9.30;;;2.70;99.90;;;;;;20894440;28;20041;-55
2022/03/17 23:27:27;;;;;;;30.23;8.65;;;2.80;99.90;;;;;;20895809;28;20041;-55
2022/03/17 23:37:31;;;;;;;32.47;8.85;;;2.90;99.90;;;;;;20893581;28;20049;-52
2022/03/17 23:47:34;;;;;;;35.25;10.45;;;2.90;99.90;;;;;;20911306;28;20099;-54
2022/03/17 23:57:38;;;;;;;31.20;7.32;;;2.90;99.90;;;;;;20892206;28;20474;-55
